createdAt,value
2022-12-11T00:00:15.904Z,88.70
2022-12-11T00:02:42.595Z,88.19
2022-12-11T00:05:09.683Z,87.77
2022-12-11T00:07:36.908Z,87.79
2022-12-11T00:10:04.189Z,87.83
2022-12-11T00:12:31.482Z,87.90
2022-12-11T00:14:58.170Z,87.86
2022-12-11T00:17:25.015Z,87.87
2022-12-11T00:19:51.732Z,88.12
2022-12-11T00:22:18.381Z,88.13
2022-12-11T00:24:45.022Z,88.24
2022-12-11T00:27:11.952Z,88.13
2022-12-11T00:29:38.847Z,88.25
2022-12-11T00:32:06.413Z,88.05
2022-12-11T00:34:33.110Z,88.24
2022-12-11T00:36:59.809Z,88.00
2022-12-11T00:39:26.444Z,87.74
2022-12-11T00:41:53.169Z,87.69
2022-12-11T00:44:19.845Z,87.48
2022-12-11T00:46:46.546Z,87.37
2022-12-11T00:49:13.230Z,87.37
2022-12-11T00:51:39.871Z,87.94
2022-12-11T00:54:06.893Z,87.97
2022-12-11T00:56:33.523Z,87.71
2022-12-11T00:59:00.215Z,87.59
2022-12-11T01:01:26.956Z,87.37
2022-12-11T01:04:02.253Z,87.40
2022-12-11T01:06:29.387Z,87.69
2022-12-11T01:09:15.249Z,87.55
2022-12-11T01:11:42.754Z,87.45
2022-12-11T01:14:10.258Z,88.12
2022-12-11T01:16:36.966Z,88.23
2022-12-11T01:19:03.751Z,87.85
2022-12-11T01:21:30.486Z,88.31
2022-12-11T01:23:59.452Z,88.58
2022-12-11T01:26:26.133Z,88.11
2022-12-11T01:28:52.798Z,88.32
2022-12-11T01:31:20.208Z,88.50
2022-12-11T01:33:46.902Z,88.61
2022-12-11T01:36:20.940Z,88.69
2022-12-11T01:38:48.431Z,88.64
2022-12-11T01:41:15.875Z,88.31
2022-12-11T01:44:05.198Z,88.28
2022-12-11T01:46:32.781Z,88.13
2022-12-11T01:49:00.187Z,88.12
2022-12-11T01:51:27.806Z,88.05
2022-12-11T01:54:01.061Z,88.33
2022-12-11T01:56:29.588Z,88.23
2022-12-11T01:59:00.347Z,88.18
2022-12-11T02:01:47.329Z,88.58
2022-12-11T02:04:14.587Z,88.86
2022-12-11T02:06:46.968Z,88.71
2022-12-11T02:09:19.298Z,88.60
2022-12-11T02:11:45.886Z,88.60
2022-12-11T02:14:21.386Z,89.16
2022-12-11T02:16:52.417Z,90.46
2022-12-11T02:19:31.387Z,90.37
2022-12-11T02:21:59.366Z,90.07
2022-12-11T02:24:45.100Z,89.75
2022-12-11T02:27:31.420Z,89.44
2022-12-11T02:30:17.572Z,89.07
2022-12-11T02:32:58.059Z,89.17
2022-12-11T02:35:28.338Z,89.64
2022-12-11T02:37:57.942Z,89.76
2022-12-11T02:40:26.875Z,90.72
2022-12-11T02:42:55.152Z,90.88
2022-12-11T02:45:22.905Z,90.12
2022-12-11T02:47:49.823Z,90.07
2022-12-11T02:50:18.659Z,90.04
2022-12-11T02:52:47.191Z,90.27
2022-12-11T02:55:14.983Z,89.65
2022-12-11T02:57:47.957Z,89.71
2022-12-11T03:00:14.816Z,90.68
2022-12-11T03:02:41.811Z,91.75
2022-12-11T03:05:10.285Z,91.74
2022-12-11T03:07:38.317Z,91.73
2022-12-11T03:10:07.253Z,91.24
2022-12-11T03:12:37.157Z,90.31
2022-12-11T03:15:05.871Z,89.55
2022-12-11T03:17:44.777Z,89.29
2022-12-11T03:20:30.699Z,89.28
2022-12-11T03:23:17.552Z,89.07
2022-12-11T03:25:53.663Z,89.05
2022-12-11T03:28:24.551Z,89.04
2022-12-11T03:30:53.700Z,89.25
2022-12-11T03:33:23.876Z,90.28
2022-12-11T03:35:59.467Z,90.75
2022-12-11T03:38:31.579Z,90.14
2022-12-11T03:41:01.005Z,89.60
2022-12-11T03:43:29.358Z,89.74
2022-12-11T03:45:57.130Z,89.78
2022-12-11T03:48:25.573Z,89.11
2022-12-11T03:50:52.620Z,88.61
2022-12-11T03:53:20.677Z,88.77
2022-12-11T03:55:48.442Z,88.47
2022-12-11T03:58:15.139Z,88.17
2022-12-11T04:00:41.753Z,87.22
2022-12-11T04:03:14.844Z,86.91
2022-12-11T04:05:42.732Z,86.61
2022-12-11T04:08:09.765Z,86.82
2022-12-11T04:10:36.546Z,86.89
2022-12-11T04:13:03.195Z,87.02
2022-12-11T04:15:29.799Z,87.03
2022-12-11T04:18:15.222Z,87.14
2022-12-11T04:21:00.521Z,87.51
2022-12-11T04:23:45.637Z,87.77
2022-12-11T04:26:17.080Z,87.26
2022-12-11T04:28:44.545Z,87.36
2022-12-11T04:31:12.737Z,87.30
2022-12-11T04:33:39.406Z,87.47
2022-12-11T04:36:06.737Z,87.30
2022-12-11T04:38:33.383Z,87.40
2022-12-11T04:41:11.346Z,87.20
2022-12-11T04:43:38.337Z,87.32
2022-12-11T04:46:07.508Z,87.31
2022-12-11T04:48:34.697Z,86.96
2022-12-11T04:51:01.370Z,86.49
2022-12-11T04:53:28.288Z,86.31
2022-12-11T04:55:55.305Z,86.08
2022-12-11T04:58:22.220Z,85.94
2022-12-11T05:00:48.895Z,85.90
2022-12-11T05:03:15.621Z,86.05
2022-12-11T05:05:47.720Z,86.49
2022-12-11T05:08:14.446Z,87.11
2022-12-11T05:10:44.528Z,87.71
2022-12-11T05:13:15.247Z,87.85
2022-12-11T05:15:41.893Z,87.69
2022-12-11T05:18:09.191Z,87.70
2022-12-11T05:20:35.779Z,87.57
2022-12-11T05:23:02.467Z,87.43
2022-12-11T05:25:29.095Z,87.01
2022-12-11T05:27:55.705Z,85.52
2022-12-11T05:30:22.341Z,84.93
2022-12-11T05:32:48.967Z,85.27
2022-12-11T05:35:15.657Z,85.76
2022-12-11T05:37:42.299Z,86.16
2022-12-11T05:40:09.303Z,86.75
2022-12-11T05:42:35.958Z,86.87
2022-12-11T05:45:02.612Z,87.49
2022-12-11T05:47:29.231Z,87.87
2022-12-11T05:49:55.855Z,87.51
2022-12-11T05:52:22.459Z,87.89
2022-12-11T05:54:50.396Z,87.69
2022-12-11T05:57:17.257Z,87.98
2022-12-11T05:59:45.409Z,88.52
2022-12-11T06:02:12.079Z,88.86
2022-12-11T06:04:38.838Z,89.05
2022-12-11T06:07:05.600Z,89.68
2022-12-11T06:09:32.252Z,89.75
2022-12-11T06:11:58.918Z,89.75
2022-12-11T06:14:25.575Z,89.76
2022-12-11T06:16:52.357Z,90.32
2022-12-11T06:19:19.551Z,89.87
2022-12-11T06:21:46.811Z,89.22
2022-12-11T06:24:13.687Z,88.90
2022-12-11T06:26:40.439Z,89.20
2022-12-11T06:29:10.909Z,88.74
2022-12-11T06:31:39.653Z,88.64
2022-12-11T06:34:06.439Z,88.62
2022-12-11T06:36:33.124Z,89.11
2022-12-11T06:38:59.774Z,89.60
2022-12-11T06:41:26.458Z,90.42
2022-12-11T06:43:53.152Z,90.35
2022-12-11T06:46:20.275Z,90.20
2022-12-11T06:48:47.754Z,90.55
2022-12-11T06:51:16.258Z,89.87
2022-12-11T06:53:43.217Z,89.78
2022-12-11T06:56:13.403Z,90.20
2022-12-11T06:58:40.557Z,90.65
2022-12-11T07:01:20.757Z,90.88
2022-12-11T07:03:47.770Z,91.56
2022-12-11T07:06:15.175Z,92.13
2022-12-11T07:08:42.124Z,93.16
2022-12-11T07:11:09.986Z,93.52
2022-12-11T07:13:36.749Z,94.15
2022-12-11T07:16:04.859Z,94.22
2022-12-11T07:18:32.836Z,94.35
2022-12-11T07:21:00.581Z,94.66
2022-12-11T07:23:28.546Z,94.26
2022-12-11T07:25:55.653Z,94.38
2022-12-11T07:28:22.505Z,94.10
2022-12-11T07:30:49.688Z,94.73
2022-12-11T07:33:16.383Z,94.59
2022-12-11T07:35:43.833Z,94.53
2022-12-11T07:38:10.483Z,94.67
2022-12-11T07:40:37.422Z,95.12
2022-12-11T07:43:04.101Z,94.97
2022-12-11T07:45:30.812Z,95.25
2022-12-11T07:47:57.486Z,94.88
2022-12-11T07:50:24.187Z,94.63
2022-12-11T07:52:50.951Z,94.02
2022-12-11T07:55:17.582Z,94.17
2022-12-11T07:57:44.247Z,93.96
2022-12-11T08:00:11.959Z,94.06
2022-12-11T08:02:38.690Z,94.02
2022-12-11T08:05:05.810Z,93.61
2022-12-11T08:07:34.429Z,93.69
2022-12-11T08:10:01.196Z,93.34
2022-12-11T08:12:27.892Z,92.60
2022-12-11T08:14:54.724Z,92.86
2022-12-11T08:17:25.864Z,92.69
2022-12-11T08:19:55.713Z,92.79
2022-12-11T08:22:22.464Z,92.63
2022-12-11T08:24:49.120Z,92.92
2022-12-11T08:27:15.825Z,92.83
2022-12-11T08:29:44.271Z,92.83
2022-12-11T08:32:12.623Z,92.69
2022-12-11T08:34:39.430Z,92.23
2022-12-11T08:37:06.198Z,92.36
2022-12-11T08:39:33.020Z,92.52
2022-12-11T08:41:59.627Z,92.27
2022-12-11T08:44:27.452Z,91.86
2022-12-11T08:46:54.179Z,91.99
2022-12-11T08:49:20.846Z,91.75
2022-12-11T08:51:47.503Z,91.89
2022-12-11T08:54:14.214Z,91.76
2022-12-11T08:56:40.947Z,91.89
2022-12-11T08:59:07.742Z,92.50
2022-12-11T09:01:34.559Z,93.08
2022-12-11T09:04:01.370Z,93.52
2022-12-11T09:06:29.414Z,92.92
2022-12-11T09:08:56.467Z,93.09
2022-12-11T09:11:33.261Z,93.11
2022-12-11T09:14:05.444Z,93.18
2022-12-11T09:16:34.400Z,93.44
2022-12-11T09:19:01.051Z,93.40
2022-12-11T09:21:29.316Z,93.12
2022-12-11T09:23:57.301Z,92.83
2022-12-11T09:26:24.606Z,93.08
2022-12-11T09:28:53.481Z,93.37
2022-12-11T09:31:24.660Z,93.33
2022-12-11T09:33:52.248Z,93.37
2022-12-11T09:36:19.285Z,92.97
2022-12-11T09:38:46.138Z,92.92
2022-12-11T09:41:22.322Z,92.52
2022-12-11T09:43:52.586Z,92.68
2022-12-11T09:46:23.544Z,92.48
2022-12-11T09:48:51.578Z,92.24
2022-12-11T09:51:20.937Z,92.29
2022-12-11T09:53:49.667Z,92.08
2022-12-11T09:56:28.556Z,91.87
2022-12-11T09:59:30.647Z,91.89
2022-12-11T10:02:31.085Z,91.61
2022-12-11T10:05:28.948Z,91.39
2022-12-11T10:08:09.306Z,91.39
2022-12-11T10:10:43.884Z,91.14
2022-12-11T10:13:36.833Z,90.74
2022-12-11T10:16:09.643Z,90.26
2022-12-11T10:18:36.822Z,88.69
2022-12-11T10:21:03.772Z,88.67
2022-12-11T10:23:41.897Z,89.01
2022-12-11T10:26:12.873Z,90.06
2022-12-11T10:28:39.560Z,90.54
2022-12-11T10:31:24.791Z,91.13
2022-12-11T10:34:01.310Z,91.34
2022-12-11T10:36:33.067Z,91.45
2022-12-11T10:38:59.830Z,90.16
2022-12-11T10:41:40.004Z,89.06
2022-12-11T10:44:21.102Z,88.60
2022-12-11T10:46:48.778Z,88.96
2022-12-11T10:49:23.376Z,88.94
2022-12-11T10:51:50.607Z,88.90
2022-12-11T10:54:27.619Z,88.07
2022-12-11T10:56:54.559Z,88.65
2022-12-11T10:59:26.832Z,89.33
2022-12-11T11:01:53.958Z,89.35
2022-12-11T11:04:30.223Z,89.38
2022-12-11T11:07:04.629Z,89.47
2022-12-11T11:09:34.085Z,89.20
2022-12-11T11:12:07.392Z,89.16
2022-12-11T11:14:34.687Z,89.53
2022-12-11T11:17:01.465Z,89.01
2022-12-11T11:19:34.372Z,88.94
2022-12-11T11:22:03.101Z,88.93
2022-12-11T11:24:41.158Z,89.22
2022-12-11T11:27:26.596Z,88.80
2022-12-11T11:29:58.357Z,88.61
2022-12-11T11:32:45.848Z,88.95
2022-12-11T11:35:12.713Z,88.94
2022-12-11T11:37:45.536Z,89.44
2022-12-11T11:40:16.485Z,89.26
2022-12-11T11:43:01.773Z,88.67
2022-12-11T11:45:36.387Z,88.52
2022-12-11T11:48:13.411Z,89.40
2022-12-11T11:50:44.985Z,89.86
2022-12-11T11:53:19.503Z,90.60
2022-12-11T11:56:06.515Z,91.10
2022-12-11T11:58:55.600Z,90.45
2022-12-11T12:01:22.475Z,90.22
2022-12-11T12:03:49.919Z,90.10
2022-12-11T12:06:36.758Z,90.21
2022-12-11T12:09:06.621Z,90.29
2022-12-11T12:11:33.278Z,89.80
2022-12-11T12:14:03.433Z,90.32
2022-12-11T12:19:50.821Z,90.90
2022-12-11T12:22:20.509Z,91.56
2022-12-11T12:24:59.588Z,92.14
2022-12-11T12:27:52.959Z,92.08
2022-12-11T12:30:22.842Z,92.65
2022-12-11T12:33:13.464Z,91.74
2022-12-11T12:36:06.810Z,91.10
2022-12-11T12:38:40.323Z,90.80
2022-12-11T12:41:06.941Z,90.32
2022-12-11T12:43:52.413Z,90.18
2022-12-11T12:46:37.943Z,90.35
2022-12-11T12:49:05.638Z,90.50
2022-12-11T12:51:32.511Z,90.82
2022-12-11T12:54:10.535Z,90.57
2022-12-11T12:56:40.766Z,90.45
2022-12-11T12:59:19.038Z,89.99
2022-12-11T13:01:52.593Z,90.90
2022-12-11T13:07:27.431Z,91.71
2022-12-11T13:10:05.375Z,91.96
2022-12-11T13:12:42.963Z,92.28
2022-12-11T13:15:26.244Z,92.01
2022-12-11T13:17:52.979Z,92.31
2022-12-11T13:20:21.016Z,92.81
2022-12-11T13:22:48.499Z,92.88
2022-12-11T13:25:26.167Z,92.63
2022-12-11T13:27:53.048Z,92.48
2022-12-11T13:30:23.087Z,91.71
2022-12-11T13:32:55.715Z,91.34
2022-12-11T13:35:22.399Z,91.10
2022-12-11T13:37:52.326Z,91.40
2022-12-11T13:40:20.250Z,92.12
2022-12-11T13:42:49.653Z,92.42
2022-12-11T13:45:21.972Z,92.02
2022-12-11T13:47:48.618Z,91.26
2022-12-11T13:50:20.635Z,90.83
2022-12-11T13:52:54.818Z,90.05
2022-12-11T13:55:27.889Z,90.04
2022-12-11T13:57:54.482Z,90.88
2022-12-11T14:00:22.990Z,91.26
2022-12-11T14:02:50.866Z,91.81
2022-12-11T14:05:18.472Z,92.09
2022-12-11T14:07:49.659Z,91.89
2022-12-11T14:10:19.651Z,91.91
2022-12-11T14:12:55.388Z,92.27
2022-12-11T14:15:22.262Z,91.80
2022-12-11T14:17:51.946Z,92.27
2022-12-11T14:20:27.943Z,92.47
2022-12-11T14:23:21.273Z,92.87
2022-12-11T14:26:09.916Z,93.13
2022-12-11T14:28:40.400Z,92.92
2022-12-11T14:31:14.547Z,93.14
2022-12-11T14:33:45.648Z,92.75
2022-12-11T14:36:18.739Z,92.58
2022-12-11T14:38:46.943Z,92.55
2022-12-11T14:41:20.239Z,92.92
2022-12-11T14:43:51.329Z,92.76
2022-12-11T14:46:25.002Z,92.44
2022-12-11T14:49:00.790Z,92.00
2022-12-11T14:51:32.294Z,91.59
2022-12-11T14:54:04.680Z,91.62
2022-12-11T14:56:36.095Z,92.12
2022-12-11T14:59:08.584Z,91.98
2022-12-11T15:01:37.422Z,90.85
2022-12-11T15:04:23.373Z,90.65
2022-12-11T15:06:50.991Z,90.84
2022-12-11T15:09:17.735Z,90.25
2022-12-11T15:11:45.106Z,90.50
2022-12-11T15:14:12.685Z,90.14
2022-12-11T15:16:40.939Z,90.46
2022-12-11T15:19:14.868Z,90.80
2022-12-11T15:21:41.557Z,91.16
2022-12-11T15:24:21.856Z,91.79
2022-12-11T15:26:48.915Z,91.42
2022-12-11T15:29:51.153Z,90.71
2022-12-11T15:32:19.799Z,90.57
2022-12-11T15:34:57.134Z,90.50
2022-12-11T15:37:27.361Z,89.15
2022-12-11T15:39:55.006Z,89.53
2022-12-11T15:42:26.326Z,90.04
2022-12-11T15:44:54.016Z,89.60
2022-12-11T15:47:24.981Z,89.79
2022-12-11T15:49:55.729Z,90.40
2022-12-11T15:52:22.426Z,90.08
2022-12-11T15:54:49.115Z,89.84
2022-12-11T15:57:25.791Z,89.63
2022-12-11T15:59:54.240Z,89.82
2022-12-11T16:02:21.103Z,89.25
2022-12-11T16:04:47.844Z,89.36
2022-12-11T16:07:33.683Z,88.81
2022-12-11T16:10:00.660Z,88.25
2022-12-11T16:12:27.445Z,88.59
2022-12-11T16:14:54.190Z,88.79
2022-12-11T16:17:20.795Z,88.52
2022-12-11T16:19:50.117Z,88.74
2022-12-11T16:22:16.984Z,89.20
2022-12-11T16:24:43.772Z,89.33
2022-12-11T16:27:10.475Z,89.17
2022-12-11T16:29:42.910Z,89.23
2022-12-11T16:32:09.802Z,89.46
2022-12-11T16:34:37.776Z,89.78
2022-12-11T16:37:05.338Z,90.32
2022-12-11T16:39:31.975Z,89.81
2022-12-11T16:41:58.754Z,89.72
2022-12-11T16:44:26.947Z,89.21
2022-12-11T16:46:54.122Z,89.48
2022-12-11T16:49:21.308Z,88.92
2022-12-11T16:51:49.557Z,88.32
2022-12-11T16:54:16.265Z,88.44
2022-12-11T16:56:43.089Z,88.84
2022-12-11T16:59:09.784Z,88.91
2022-12-11T17:01:36.481Z,89.10
2022-12-11T17:04:03.156Z,89.89
2022-12-11T17:06:29.938Z,89.16
2022-12-11T17:08:56.612Z,88.59
2022-12-11T17:11:25.120Z,89.16
2022-12-11T17:13:59.065Z,89.52
2022-12-11T17:16:29.190Z,89.48
2022-12-11T17:18:56.891Z,89.57
2022-12-11T17:21:23.822Z,90.19
2022-12-11T17:23:50.945Z,91.62
2022-12-11T17:26:18.500Z,91.96
2022-12-11T17:28:45.323Z,91.31
2022-12-11T17:31:16.493Z,89.48
2022-12-11T17:33:44.312Z,89.38
2022-12-11T17:36:13.522Z,89.44
2022-12-11T17:38:40.152Z,90.12
2022-12-11T17:41:07.412Z,90.25
2022-12-11T17:43:34.259Z,89.99
2022-12-11T17:46:00.982Z,90.05
2022-12-11T17:48:28.220Z,90.61
2022-12-11T17:50:54.899Z,89.75
2022-12-11T17:53:22.112Z,89.46
2022-12-11T17:55:48.859Z,89.29
2022-12-11T17:58:16.948Z,89.75
2022-12-11T18:00:44.555Z,90.24
2022-12-11T18:03:11.660Z,90.63
2022-12-11T18:05:46.008Z,91.24
2022-12-11T18:08:16.776Z,91.24
2022-12-11T18:10:43.817Z,90.47
2022-12-11T18:13:10.458Z,90.58
2022-12-11T18:15:37.707Z,90.62
2022-12-11T18:18:04.921Z,90.36
2022-12-11T18:20:31.867Z,90.59
2022-12-11T18:22:58.526Z,90.11
2022-12-11T18:25:25.211Z,90.43
2022-12-11T18:27:52.208Z,89.36
2022-12-11T18:30:18.910Z,89.05
2022-12-11T18:32:45.596Z,89.71
2022-12-11T18:35:12.515Z,89.88
2022-12-11T18:37:39.533Z,90.05
2022-12-11T18:40:07.346Z,90.69
2022-12-11T18:42:34.311Z,90.49
2022-12-11T18:45:01.186Z,89.25
2022-12-11T18:47:27.966Z,88.45
2022-12-11T18:49:54.638Z,89.30
2022-12-11T18:52:21.306Z,89.05
2022-12-11T18:54:49.313Z,89.20
2022-12-11T18:57:15.929Z,90.30
2022-12-11T19:00:07.573Z,89.89
2022-12-11T19:02:35.185Z,89.58
2022-12-11T19:05:01.858Z,89.30
2022-12-11T19:07:28.626Z,89.98
2022-12-11T19:09:55.386Z,90.73
2022-12-11T19:12:22.095Z,90.97
2022-12-11T19:14:49.087Z,90.79
2022-12-11T19:17:15.714Z,90.84
2022-12-11T19:19:47.514Z,90.85
2022-12-11T19:22:15.233Z,90.59
2022-12-11T19:24:41.888Z,90.48
2022-12-11T19:27:13.278Z,90.54
2022-12-11T19:29:41.265Z,90.30
2022-12-11T19:32:07.874Z,89.96
2022-12-11T19:34:34.502Z,89.63
2022-12-11T19:37:01.149Z,90.12
2022-12-11T19:39:27.797Z,90.54
2022-12-11T19:41:54.677Z,90.98
2022-12-11T19:44:21.437Z,91.22
2022-12-11T19:46:48.215Z,89.93
2022-12-11T19:49:15.588Z,90.00
2022-12-11T19:51:42.768Z,90.47
2022-12-11T19:54:11.616Z,90.47
2022-12-11T19:56:38.318Z,90.74
2022-12-11T19:59:06.895Z,90.46
2022-12-11T20:01:36.442Z,90.67
2022-12-11T20:04:10.758Z,91.10
2022-12-11T20:06:39.232Z,91.78
2022-12-11T20:09:07.529Z,90.90
2022-12-11T20:11:34.271Z,90.69
2022-12-11T20:14:01.021Z,90.64
2022-12-11T20:16:53.854Z,91.17
2022-12-11T20:19:14.828Z,90.75
2022-12-11T20:21:42.464Z,91.19
2022-12-11T20:24:09.559Z,91.33
2022-12-11T20:26:37.121Z,91.32
2022-12-11T20:29:08.532Z,91.14
2022-12-11T20:31:36.121Z,90.86
2022-12-11T20:34:02.798Z,90.70
2022-12-11T20:36:29.481Z,90.67
2022-12-11T20:38:56.380Z,91.09
2022-12-11T20:41:24.296Z,91.59
2022-12-11T20:43:53.280Z,91.71
2022-12-11T20:46:20.979Z,91.75
2022-12-11T20:48:48.109Z,91.63
2022-12-11T20:51:18.564Z,91.58
2022-12-11T20:53:50.457Z,91.81
2022-12-11T20:56:42.199Z,92.05
2022-12-11T20:59:24.233Z,92.62
2022-12-11T21:01:50.942Z,92.49
2022-12-11T21:04:17.655Z,92.07
2022-12-11T21:06:44.342Z,92.03
2022-12-11T21:09:17.946Z,92.20
2022-12-11T21:11:44.627Z,91.73
2022-12-11T21:14:11.244Z,91.43
2022-12-11T21:16:38.181Z,91.66
2022-12-11T21:19:06.610Z,91.63
2022-12-11T21:21:34.023Z,92.05
2022-12-11T21:24:00.657Z,92.40
2022-12-11T21:26:27.326Z,91.37
2022-12-11T21:28:54.181Z,91.49
2022-12-11T21:31:20.971Z,91.95
2022-12-11T21:33:48.198Z,92.66
2022-12-11T21:36:15.426Z,92.67
2022-12-11T21:38:43.843Z,92.79
2022-12-11T21:41:15.770Z,93.08
2022-12-11T21:44:32.922Z,92.92
2022-12-11T21:46:30.701Z,92.76
2022-12-11T21:48:57.452Z,92.78
2022-12-11T21:51:29.684Z,92.76
2022-12-11T21:53:59.322Z,91.98
2022-12-11T21:56:27.447Z,91.74
2022-12-11T21:58:54.646Z,92.14
2022-12-11T22:01:25.925Z,92.26
2022-12-11T22:03:53.491Z,92.50
2022-12-11T22:06:22.371Z,91.77
2022-12-11T22:08:49.422Z,91.72
2022-12-11T22:11:20.242Z,92.11
2022-12-11T22:13:47.401Z,91.95
2022-12-11T22:16:14.099Z,92.25
2022-12-11T22:18:40.906Z,92.60
2022-12-11T22:21:10.913Z,92.90
2022-12-11T22:23:39.184Z,92.91
2022-12-11T22:26:09.867Z,93.46
2022-12-11T22:28:36.558Z,93.83
2022-12-11T22:31:03.197Z,93.70
2022-12-11T22:33:29.891Z,93.66
2022-12-11T22:35:57.320Z,93.43
2022-12-11T22:38:24.218Z,93.12
2022-12-11T22:40:50.884Z,92.94
2022-12-11T22:43:17.670Z,92.27
2022-12-11T22:45:44.359Z,92.78
2022-12-11T22:48:11.034Z,92.60
2022-12-11T22:50:38.651Z,91.89
2022-12-11T22:53:05.725Z,92.11
2022-12-11T22:55:32.685Z,91.97
2022-12-11T22:57:59.315Z,91.95
2022-12-11T23:00:26.327Z,92.12
2022-12-11T23:02:53.078Z,91.81
2022-12-11T23:05:19.789Z,92.24
2022-12-11T23:07:46.664Z,92.14
2022-12-11T23:10:13.459Z,92.56
2022-12-11T23:12:40.281Z,92.62
2022-12-11T23:15:07.982Z,92.66
2022-12-11T23:17:34.574Z,92.46
2022-12-11T23:20:03.855Z,92.62
2022-12-11T23:22:30.816Z,92.79
2022-12-11T23:24:57.757Z,92.70
2022-12-11T23:27:24.520Z,92.45
2022-12-11T23:29:51.137Z,92.30
2022-12-11T23:32:17.809Z,92.07
2022-12-11T23:34:44.455Z,91.98
2022-12-11T23:37:11.278Z,92.14
2022-12-11T23:39:45.534Z,91.82
2022-12-11T23:42:12.163Z,92.47
2022-12-11T23:44:38.885Z,92.71
2022-12-11T23:47:05.574Z,92.17
2022-12-11T23:49:32.313Z,91.99
2022-12-11T23:51:59.041Z,92.10
2022-12-11T23:54:25.871Z,92.04
2022-12-11T23:57:19.652Z,91.40
2022-12-11T23:59:52.775Z,90.59
